Monday, July 23, 2018, 7:38 AM EDT
Back to Local

KIPT, Williamsport-lycoming County

Location: Montoursville, PA, United States Lat: 41.25
Local Time: 7:38 AM EDT (11:38 GMT) Lon: -76.917
Time Zone: US/Eastern Elev: 528 ft

Show me the last for .
Show Decoded

2018-07-23 07:25 METAR KIPT 231125Z 08007KT 10SM -RA BKN025 BKN030 21/19 A2998 RMK AO2 RAB25
                 P0000 T02110194 =
2018-07-23 06:54 METAR KIPT 231054Z 09012KT 10SM FEW013 SCT045 BKN085 22/19 A2998 RMK AO2 LTG
                 DSNT SW RAE18 SLP147 P0001 T02170194 =
2018-07-23 05:54 METAR KIPT 230954Z AUTO 09008KT 9SM RA FEW007 SCT016 BKN120 22/21 A2994 RMK AO2
                 TSE05 SLP136 P0011 T02220211 =
2018-07-23 05:51 METAR KIPT 230951Z AUTO 09008KT 10SM -RA SCT007 SCT016 BKN120 22/21 A2994 RMK
                 AO2 LTG DSNT NE TSE05 P0011 =
2018-07-23 05:37 METAR KIPT 230937Z AUTO 05004KT 10SM -RA SCT007 BKN018 OVC120 22/21 A2994 RMK
                 AO2 LTG DSNT NE AND E TSE05 CIG 015V027 P0010 T02170206 =
2018-07-23 05:28 METAR KIPT 230928Z AUTO 00000KT 9SM -RA SCT007 BKN085 OVC110 22/21 A2993 RMK AO2
                 LTG DSNT N AND E TSE05 P0009 T02170211 =
2018-07-23 05:11 METAR KIPT 230911Z AUTO 05006KT 6SM RA BR SCT080 BKN100 OVC120 21/21 A2992 RMK
                 AO2 LTG DSNT N-SE TSE05 P0007 T02110206 =
2018-07-23 05:01 METAR KIPT 230901Z AUTO 06009KT 6SM TSRA BR FEW017 BKN080 OVC100 21/20 A2993 RMK
                 AO2 LTG DSNT E AND SE P0003 T02110200 =
2018-07-23 04:54 METAR KIPT 230854Z AUTO 06005KT 5SM +TSRA BR BKN017 BKN048 OVC100 21/20 A2993
                 RMK AO2 LTG DSNT E AND SE TSE15B50 SLP132 P0018 60027 T02110200 53003 =
2018-07-23 04:35 METAR KIPT 230835Z AUTO 09003KT 5SM RA BR FEW008 OVC015 21/21 A2993 RMK AO2 LTG
                 DSNT N AND SE TSE15 P0013 T02110206 =
2018-07-23 04:17 METAR KIPT 230817Z AUTO 09004KT 5SM VCTS RA BR SCT007 OVC014 22/20 A2992 RMK AO2
                 LTG DSNT SE AND S AND NW TSE15 P0005 T02170200 =
2018-07-23 04:10 METAR KIPT 230810Z AUTO 24008KT 8SM -TSRA BKN007 OVC014 21/20 A2993 RMK AO2 CIG
                 006V011 P0003 T02110200 =
2018-07-23 04:01 METAR KIPT 230801Z AUTO 17006KT 5SM -TSRA BR FEW007 OVC015 21/20 A2992 RMK AO2
                 LTG DSNT SE AND S P0003 T02110200 =
2018-07-23 03:54 METAR KIPT 230754Z AUTO 34004KT 4SM TSRA BR BKN016 BKN120 21/20 A2991 RMK AO2
                 LTG DSNT SE AND S RAB13 TSB48 SLP126 P0006 T02110200 =
2018-07-23 03:28 METAR KIPT 230728Z AUTO 09003KT 10SM -RA BKN015 BKN024 OVC120 21/20 A2991 RMK
                 AO2 RAB13 P0000 T02110200 =
2018-07-23 03:16 METAR KIPT 230716Z AUTO 10006KT 10SM -RA OVC014 21/20 A2992 RMK AO2 RAB13 P0000
                 T02110200 =
2018-07-23 02:54 METAR KIPT 230654Z AUTO 10003KT 10SM BKN015 BKN021 OVC030 21/20 A2992 RMK AO2
                 RAE48 TSE02 SLP129 P0003 T02110200 =
2018-07-23 02:50 METAR KIPT 230650Z AUTO 09004KT 10SM BKN017 BKN030 OVC044 22/20 A2992 RMK AO2
                 RAE48 TSE02 P0003 =
2018-07-23 02:40 METAR KIPT 230640Z AUTO 10003KT 6SM -RA BR SCT019 BKN030 BKN046 21/20 A2992 RMK
                 AO2 TSE02 P0003 T02110200 =
2018-07-23 02:08 METAR KIPT 230608Z AUTO 00000KT 10SM -RA FEW008 OVC021 22/20 A2993 RMK AO2 TSE02
                 P0000 T02170200 =
2018-07-23 01:54 METAR KIPT 230554Z AUTO 00000KT 7SM TSRA FEW007 SCT021 OVC028 21/20 A2994 RMK
                 AO2 LTG DSNT N AND NW RAB22 TSB27E42B47 SLP136 P0007 60009 T02110200 10244 20211
                 50002 =
2018-07-23 01:42 METAR KIPT 230542Z AUTO 27004KT 5SM VCTS -RA BR BKN028 BKN037 22/20 A2994 RMK
                 AO2 LTG DSNT S AND NW RAB22 TSB27E42 P0000 T02170200 =
2018-07-23 01:33 METAR KIPT 230533Z AUTO 00000KT 10SM -TSRA SCT030 BKN037 BKN047 22/20 A2994 RMK
                 AO2 LTG DSNT S RAB22 TSB27 P0000 T02170200 =
2018-07-23 01:26 METAR KIPT 230526Z AUTO 05003KT 10SM VCTS -RA SCT030 SCT037 BKN049 22/20 A2993
                 RMK AO2 LTG DSNT S AND SW RAB22 P0000 T02170200 =
2018-07-23 01:12 METAR KIPT 230512Z AUTO 06005KT 10SM SCT018 SCT033 BKN050 22/20 A2993 RMK AO2
                 LTG DSNT S T02170200 =
2018-07-23 00:54 METAR KIPT 230454Z AUTO 09004KT 10SM BKN019 22/20 A2994 RMK AO2 SLP134 T02170200
                 402610161 =
2018-07-23 00:20 METAR KIPT 230420Z AUTO 10008KT 10SM BKN026 22/20 A2994 RMK AO2 T02220200 =
2018-07-22 23:54 METAR KIPT 230354Z AUTO VRB05KT 10SM CLR 22/20 A2994 RMK AO2 RAE09 SLP133 P0000
                 T02170200 =
2018-07-22 22:54 METAR KIPT 230254Z AUTO 10011G16KT 10SM -RA FEW042 SCT095 BKN110 22/19 A2991 RMK
                 AO2 RAB28 SLP124 P0002 60002 T02220194 50012 =
2018-07-22 21:54 METAR KIPT 230154Z VRB05KT 10SM FEW045 SCT065 SCT090 23/19 A2992 RMK AO2 LTG
                 DSNT SE AND S SLP128 T02280194 =
2018-07-22 20:54 METAR KIPT 230054Z 09008KT 10SM FEW055 23/20 A2990 RMK AO2 SLP121 T02330200 =
2018-07-22 19:54 METAR KIPT 222354Z 12010G16KT 10SM BKN060 24/19 A2987 RMK AO2 RAE04 SLP111 P0000
                 60000 T02440194 10261 20228 53004 =
2018-07-22 18:54 METAR KIPT 222254Z 11006KT 10SM -RA BKN031 OVC040 25/21 A2986 RMK AO2 RAB49
                 SLP109 P0000 T02500206 =
2018-07-22 17:54 METAR KIPT 222154Z 09009KT 10SM BKN040 BKN047 OVC055 25/19 A2986 RMK AO2 SLP108
                 T02500194 =
2018-07-22 16:54 METAR KIPT 222054Z VRB04KT 10SM SCT030 BKN075 BKN100 26/19 A2986 RMK AO2 SLP107
                 T02560189 57005 =
2018-07-22 15:54 METAR KIPT 221954Z 00000KT 10SM BKN037 OVC044 24/18 A2987 RMK AO2 SLP112
                 T02440183 =
2018-07-22 14:54 METAR KIPT 221854Z 12006KT 10SM FEW028 SCT120 25/18 A2986 RMK AO2 SLP109
                 T02500183 =
2018-07-22 14:01 METAR KIPT 221801Z 13012KT 10SM FEW018 SCT026 23/18 A2987 RMK AO2 T02330183 =
2018-07-22 13:54 METAR KIPT 221754Z 13007KT 10SM BKN014 23/18 A2987 RMK AO2 SLP114 60000
                 T02280183 10228 20183 51017 =
2018-07-22 13:12 METAR KIPT 221712Z 16012G20KT 10SM OVC014 22/18 A2986 RMK AO2 T02170178 =
2018-07-22 12:54 METAR KIPT 221654Z 16009G19KT 10SM OVC015 22/18 A2986 RMK AO2 RAE03 SLP107 P0000
                 T02220183 =
2018-07-22 12:14 METAR KIPT 221614Z 16010G18KT 10SM SCT012 BKN017 BKN025 22/18 A2985 RMK AO2
                 RAE03 P0000 T02220183 =
2018-07-22 11:54 METAR KIPT 221554Z 11009KT 4SM -RA BR OVC012 21/18 A2984 RMK AO2 RAB30 SLP104
                 P0000 T02060183 =
2018-07-22 10:54 METAR KIPT 221454Z 06005KT 8SM OVC012 20/17 A2982 RMK AO2 SLP096 T02000172 51032
                 =
2018-07-22 09:54 METAR KIPT 221354Z 09007KT 9SM OVC011 19/17 A2979 RMK AO2 SLP087 T01890167 =
2018-07-22 09:01 METAR KIPT 221301Z 05003KT 5SM BR OVC010 18/17 A2978 RMK AO2 T01830172 =
2018-07-22 08:54 METAR KIPT 221254Z 06005KT 2 1/2SM BR OVC010 18/17 A2977 RMK AO2 SLP079
                 T01830172 =
2018-07-22 07:54 METAR KIPT 221154Z 32003KT 10SM OVC013 18/16 A2973 RMK AO2 RAE21B28E37 SLP065
                 P0002 60114 70270 T01780161 10178 20161 53029 =

Support USWX by starting your Amazon purchase here.